sensor_id;sensor_type;location;lat;lon;timestamp;pressure;altitude;pressure_sealevel;temperature;humidity
32735;BME280;19112;51.076;3.706;2024-03-23T00:52:36;100904.03;;;9.70;88.92
32735;BME280;19112;51.076;3.706;2024-03-23T00:55:02;100594.22;;;7.45;89.21
32735;BME280;19112;51.076;3.706;2024-03-23T00:57:28;100629.91;;;7.88;89.58
32735;BME280;19112;51.076;3.706;2024-03-23T00:59:56;100414.69;;;6.54;89.35
32735;BME280;19112;51.076;3.706;2024-03-23T01:02:23;100618.03;;;8.17;90.42
32735;BME280;19112;51.076;3.706;2024-03-23T01:04:49;101196.63;;;10.98;91.12
32735;BME280;19112;51.076;3.706;2024-03-23T01:07:14;100420.91;;;6.77;90.45
32735;BME280;19112;51.076;3.706;2024-03-23T01:09:40;100329.63;;;6.36;90.59
32735;BME280;19112;51.076;3.706;2024-03-23T01:12:09;100859.00;;;9.58;90.27
32735;BME280;19112;51.076;3.706;2024-03-23T01:14:35;100252.03;;;6.28;89.85
32735;BME280;19112;51.076;3.706;2024-03-23T01:17:02;100088.06;;;5.06;89.52
32735;BME280;19112;51.076;3.706;2024-03-23T01:19:28;100856.88;;;9.48;89.92
32735;BME280;19112;51.076;3.706;2024-03-23T01:21:53;100672.22;;;8.21;89.17
32735;BME280;19112;51.076;3.706;2024-03-23T01:24:20;100779.97;;;8.77;89.07
32735;BME280;19112;51.076;3.706;2024-03-23T01:26:48;100287.16;;;6.17;88.83
32735;BME280;19112;51.076;3.706;2024-03-23T01:29:14;100270.91;;;5.83;87.62
32735;BME280;19112;51.076;3.706;2024-03-23T01:31:43;100719.41;;;8.24;87.99
32735;BME280;19112;51.076;3.706;2024-03-23T01:34:10;100337.44;;;6.36;87.82
32735;BME280;19112;51.076;3.706;2024-03-23T01:36:37;100224.75;;;5.38;87.35
32735;BME280;19112;51.076;3.706;2024-03-23T01:39:04;100907.16;;;9.60;87.84
32735;BME280;19112;51.076;3.706;2024-03-23T01:41:30;100435.97;;;6.85;86.78
32735;BME280;19112;51.076;3.706;2024-03-23T01:43:58;100849.03;;;9.25;86.66
32735;BME280;19112;51.076;3.706;2024-03-23T01:46:33;100462.19;;;6.88;86.44
32735;BME280;19112;51.076;3.706;2024-03-23T01:49:05;100814.06;;;9.01;86.36
32735;BME280;19112;51.076;3.706;2024-03-23T01:51:32;100966.44;;;9.35;86.27
32735;BME280;19112;51.076;3.706;2024-03-23T01:54:03;100246.31;;;5.16;85.49
32735;BME280;19112;51.076;3.706;2024-03-23T01:56:33;100078.38;;;4.63;86.04
32735;BME280;19112;51.076;3.706;2024-03-23T01:59:06;100712.31;;;7.78;85.97
32735;BME280;19112;51.076;3.706;2024-03-23T02:01:35;100940.66;;;9.24;86.85
32735;BME280;19112;51.076;3.706;2024-03-23T02:04:06;100683.28;;;7.51;86.60
32735;BME280;19112;51.076;3.706;2024-03-23T02:06:34;100335.88;;;5.79;86.45
32735;BME280;19112;51.076;3.706;2024-03-23T02:09:00;100707.88;;;8.19;87.38
32735;BME280;19112;51.076;3.706;2024-03-23T02:11:26;100761.25;;;8.24;87.12
32735;BME280;19112;51.076;3.706;2024-03-23T02:13:52;100449.06;;;6.65;87.16
32735;BME280;19112;51.076;3.706;2024-03-23T02:16:18;100693.56;;;8.32;87.00
32735;BME280;19112;51.076;3.706;2024-03-23T02:18:43;100365.53;;;6.64;86.82
32735;BME280;19112;51.076;3.706;2024-03-23T02:21:09;100245.66;;;6.01;86.52
32735;BME280;19112;51.076;3.706;2024-03-23T02:23:35;100716.94;;;8.27;87.26
32735;BME280;19112;51.076;3.706;2024-03-23T02:26:02;100129.34;;;4.79;86.84
32735;BME280;19112;51.076;3.706;2024-03-23T02:28:28;100285.38;;;6.16;86.78
32735;BME280;19112;51.076;3.706;2024-03-23T02:30:54;100101.59;;;5.18;86.91
32735;BME280;19112;51.076;3.706;2024-03-23T02:33:23;100385.22;;;6.55;86.49
32735;BME280;19112;51.076;3.706;2024-03-23T02:35:56;100440.19;;;7.24;86.61
32735;BME280;19112;51.076;3.706;2024-03-23T02:38:24;100458.78;;;7.32;87.03
32735;BME280;19112;51.076;3.706;2024-03-23T02:40:51;100387.94;;;6.79;86.26
32735;BME280;19112;51.076;3.706;2024-03-23T02:43:17;100196.75;;;5.94;85.53
32735;BME280;19112;51.076;3.706;2024-03-23T02:45:46;100817.19;;;9.14;85.77
32735;BME280;19112;51.076;3.706;2024-03-23T02:48:13;100713.78;;;8.36;85.76
32735;BME280;19112;51.076;3.706;2024-03-23T02:50:39;100487.91;;;7.43;85.58
32735;BME280;19112;51.076;3.706;2024-03-23T02:53:06;100420.31;;;6.64;85.69
32735;BME280;19112;51.076;3.706;2024-03-23T02:55:51;100497.44;;;6.99;86.25
32735;BME280;19112;51.076;3.706;2024-03-23T02:58:17;100282.53;;;6.10;85.27
32735;BME280;19112;51.076;3.706;2024-03-23T03:00:44;100672.44;;;8.05;84.97
32735;BME280;19112;51.076;3.706;2024-03-23T03:03:11;100270.56;;;6.15;84.36
32735;BME280;19112;51.076;3.706;2024-03-23T03:05:38;100572.94;;;7.57;84.90
32735;BME280;19112;51.076;3.706;2024-03-23T03:08:05;100085.59;;;4.90;84.66
32735;BME280;19112;51.076;3.706;2024-03-23T03:10:36;100219.41;;;5.16;84.69
32735;BME280;19112;51.076;3.706;2024-03-23T03:13:05;100504.84;;;7.09;85.03
32735;BME280;19112;51.076;3.706;2024-03-23T03:15:32;101158.56;;;10.40;85.41
32735;BME280;19112;51.076;3.706;2024-03-23T03:18:01;100587.44;;;7.71;84.91
32735;BME280;19112;51.076;3.706;2024-03-23T03:20:27;100214.50;;;5.43;84.14
32735;BME280;19112;51.076;3.706;2024-03-23T03:22:54;100585.25;;;7.39;85.14
32735;BME280;19112;51.076;3.706;2024-03-23T03:25:21;101035.72;;;9.42;85.77
32735;BME280;19112;51.076;3.706;2024-03-23T03:27:46;99852.06;;;3.38;85.24
32735;BME280;19112;51.076;3.706;2024-03-23T03:30:13;100887.63;;;9.29;85.65
32735;BME280;19112;51.076;3.706;2024-03-23T03:32:42;100445.91;;;6.32;84.98
32735;BME280;19112;51.076;3.706;2024-03-23T03:35:11;101176.56;;;10.31;85.16
32735;BME280;19112;51.076;3.706;2024-03-23T03:37:37;101135.38;;;10.29;85.58
32735;BME280;19112;51.076;3.706;2024-03-23T03:40:05;100500.78;;;6.75;85.76
32735;BME280;19112;51.076;3.706;2024-03-23T03:42:34;100948.94;;;9.34;85.87
32735;BME280;19112;51.076;3.706;2024-03-23T03:45:00;100250.72;;;5.58;85.38
32735;BME280;19112;51.076;3.706;2024-03-23T03:47:26;100733.84;;;7.73;85.43
32735;BME280;19112;51.076;3.706;2024-03-23T03:49:52;100382.06;;;5.84;84.32
32735;BME280;19112;51.076;3.706;2024-03-23T03:52:21;100716.56;;;7.76;86.06
32735;BME280;19112;51.076;3.706;2024-03-23T03:54:51;100086.66;;;4.35;86.53
32735;BME280;19112;51.076;3.706;2024-03-23T03:57:20;100519.22;;;6.59;86.80
32735;BME280;19112;51.076;3.706;2024-03-23T03:59:47;100546.13;;;6.77;86.30
32735;BME280;19112;51.076;3.706;2024-03-23T04:02:15;100186.81;;;4.29;87.18
32735;BME280;19112;51.076;3.706;2024-03-23T04:04:41;100706.84;;;7.53;87.76
32735;BME280;19112;51.076;3.706;2024-03-23T04:07:08;100082.69;;;4.24;87.44
32735;BME280;19112;51.076;3.706;2024-03-23T04:09:36;100055.22;;;3.92;88.22
32735;BME280;19112;51.076;3.706;2024-03-23T04:12:03;100324.25;;;5.71;88.23
32735;BME280;19112;51.076;3.706;2024-03-23T04:14:30;100668.75;;;7.18;88.81
32735;BME280;19112;51.076;3.706;2024-03-23T04:16:59;100576.75;;;7.23;88.32
32735;BME280;19112;51.076;3.706;2024-03-23T04:19:25;100353.56;;;5.48;87.48
32735;BME280;19112;51.076;3.706;2024-03-23T04:21:54;100410.03;;;6.26;86.86
32735;BME280;19112;51.076;3.706;2024-03-23T04:24:23;100507.16;;;6.42;87.19
32735;BME280;19112;51.076;3.706;2024-03-23T04:26:51;100098.97;;;4.02;86.24
32735;BME280;19112;51.076;3.706;2024-03-23T04:29:17;100963.13;;;8.75;86.85
32735;BME280;19112;51.076;3.706;2024-03-23T04:31:43;100311.88;;;5.09;86.36
32735;BME280;19112;51.076;3.706;2024-03-23T04:34:09;100768.88;;;7.99;86.53
32735;BME280;19112;51.076;3.706;2024-03-23T04:36:36;100830.47;;;8.32;86.81
32735;BME280;19112;51.076;3.706;2024-03-23T04:39:02;100677.38;;;6.96;85.98
32735;BME280;19112;51.076;3.706;2024-03-23T04:41:29;100247.50;;;4.66;85.60
32735;BME280;19112;51.076;3.706;2024-03-23T04:43:56;101145.97;;;9.88;86.05
32735;BME280;19112;51.076;3.706;2024-03-23T04:46:26;100809.78;;;8.18;85.92
32735;BME280;19112;51.076;3.706;2024-03-23T04:48:53;100712.72;;;7.28;85.67
32735;BME280;19112;51.076;3.706;2024-03-23T04:51:25;99904.44;;;2.76;85.98
32735;BME280;19112;51.076;3.706;2024-03-23T04:53:54;100822.09;;;8.20;87.06
32735;BME280;19112;51.076;3.706;2024-03-23T04:56:21;100852.44;;;8.57;87.07
32735;BME280;19112;51.076;3.706;2024-03-23T04:58:48;100455.47;;;5.93;87.25
32735;BME280;19112;51.076;3.706;2024-03-23T05:01:16;101133.16;;;9.96;87.52
32735;BME280;19112;51.076;3.706;2024-03-23T05:03:44;100195.78;;;4.53;87.19
32735;BME280;19112;51.076;3.706;2024-03-23T05:06:10;100199.25;;;4.36;87.23
32735;BME280;19112;51.076;3.706;2024-03-23T05:08:38;101070.66;;;10.07;88.32
32735;BME280;19112;51.076;3.706;2024-03-23T05:11:05;100487.81;;;6.56;87.71
32735;BME280;19112;51.076;3.706;2024-03-23T05:13:35;100603.66;;;7.42;87.91
32735;BME280;19112;51.076;3.706;2024-03-23T05:16:03;100608.22;;;7.26;88.02
32735;BME280;19112;51.076;3.706;2024-03-23T05:18:29;100364.28;;;5.54;87.48
32735;BME280;19112;51.076;3.706;2024-03-23T05:20:57;100143.09;;;4.77;87.44
32735;BME280;19112;51.076;3.706;2024-03-23T05:23:26;100906.19;;;9.13;88.33
32735;BME280;19112;51.076;3.706;2024-03-23T05:25:53;100153.03;;;4.66;87.33
32735;BME280;19112;51.076;3.706;2024-03-23T05:28:22;100820.31;;;8.61;87.47
32735;BME280;19112;51.076;3.706;2024-03-23T05:30:55;99980.47;;;3.30;86.46
32735;BME280;19112;51.076;3.706;2024-03-23T05:33:21;100594.03;;;7.20;86.68
32735;BME280;19112;51.076;3.706;2024-03-23T05:35:57;100329.16;;;5.26;86.43
32735;BME280;19112;51.076;3.706;2024-03-23T05:38:26;100825.44;;;8.58;87.58
32735;BME280;19112;51.076;3.706;2024-03-23T05:40:58;100473.59;;;6.49;87.49
32735;BME280;19112;51.076;3.706;2024-03-23T05:43:24;100828.81;;;8.55;87.95
32735;BME280;19112;51.076;3.706;2024-03-23T05:45:57;100637.59;;;7.42;87.46
32735;BME280;19112;51.076;3.706;2024-03-23T05:48:28;100705.56;;;7.43;87.48
32735;BME280;19112;51.076;3.706;2024-03-23T05:50:59;100865.91;;;8.45;88.00
32735;BME280;19112;51.076;3.706;2024-03-23T05:53:25;100317.91;;;5.08;87.45
32735;BME280;19112;51.076;3.706;2024-03-23T05:56:02;100656.34;;;7.52;88.01
32735;BME280;19112;51.076;3.706;2024-03-23T05:58:32;100797.31;;;8.31;88.25
32735;BME280;19112;51.076;3.706;2024-03-23T06:01:01;100814.97;;;8.16;88.29
32735;BME280;19112;51.076;3.706;2024-03-23T06:03:29;100926.38;;;8.95;88.03
32735;BME280;19112;51.076;3.706;2024-03-23T06:05:56;100195.44;;;5.23;87.58
32735;BME280;19112;51.076;3.706;2024-03-23T06:08:36;100641.03;;;7.82;87.86
32735;BME280;19112;51.076;3.706;2024-03-23T06:11:02;100286.44;;;5.21;86.41
32735;BME280;19112;51.076;3.706;2024-03-23T06:13:30;100433.22;;;6.40;86.73
32735;BME280;19112;51.076;3.706;2024-03-23T06:15:57;100712.66;;;7.67;86.29
32735;BME280;19112;51.076;3.706;2024-03-23T06:18:25;100755.19;;;7.63;85.96
32735;BME280;19112;51.076;3.706;2024-03-23T06:20:54;100033.44;;;4.08;85.46
32735;BME280;19112;51.076;3.706;2024-03-23T06:23:20;100850.69;;;8.57;87.19
32735;BME280;19112;51.076;3.706;2024-03-23T06:25:46;100576.03;;;6.86;87.00
32735;BME280;19112;51.076;3.706;2024-03-23T06:28:15;100068.81;;;4.24;86.87
32735;BME280;19112;51.076;3.706;2024-03-23T06:30:42;100718.53;;;8.03;86.82
32735;BME280;19112;51.076;3.706;2024-03-23T06:33:14;100356.44;;;5.35;86.87
32735;BME280;19112;51.076;3.706;2024-03-23T06:35:51;101091.72;;;10.10;88.00
32735;BME280;19112;51.076;3.706;2024-03-23T06:38:18;100097.72;;;3.94;87.27
32735;BME280;19112;51.076;3.706;2024-03-23T06:40:44;100059.88;;;3.99;86.82
32735;BME280;19112;51.076;3.706;2024-03-23T06:43:16;100391.66;;;5.46;87.35
32735;BME280;19112;51.076;3.706;2024-03-23T06:45:42;100578.09;;;6.93;88.42
32735;BME280;19112;51.076;3.706;2024-03-23T06:48:08;100271.59;;;5.38;89.00
32735;BME280;19112;51.076;3.706;2024-03-23T06:50:34;100977.59;;;9.30;88.92
32735;BME280;19112;51.076;3.706;2024-03-23T06:53:00;101134.03;;;10.17;88.59
32735;BME280;19112;51.076;3.706;2024-03-23T06:55:30;101188.59;;;10.26;87.85
32735;BME280;19112;51.076;3.706;2024-03-23T06:57:59;100291.63;;;5.21;87.71
32735;BME280;19112;51.076;3.706;2024-03-23T07:00:25;100871.91;;;8.84;87.49
32735;BME280;19112;51.076;3.706;2024-03-23T07:02:51;100746.78;;;8.11;87.03
32735;BME280;19112;51.076;3.706;2024-03-23T07:05:17;100749.97;;;7.83;87.24
32735;BME280;19112;51.076;3.706;2024-03-23T07:07:45;100949.19;;;8.76;87.57
32735;BME280;19112;51.076;3.706;2024-03-23T07:10:12;99965.53;;;3.42;86.16
32735;BME280;19112;51.076;3.706;2024-03-23T07:12:40;100339.53;;;5.44;87.00
32735;BME280;19112;51.076;3.706;2024-03-23T07:15:06;100854.25;;;8.58;86.54
32735;BME280;19112;51.076;3.706;2024-03-23T07:17:34;100683.66;;;7.60;87.55
32735;BME280;19112;51.076;3.706;2024-03-23T07:20:02;100487.19;;;6.23;87.65
32735;BME280;19112;51.076;3.706;2024-03-23T07:22:32;100790.25;;;8.30;89.23
32735;BME280;19112;51.076;3.706;2024-03-23T07:25:02;100619.59;;;7.07;90.78
32735;BME280;19112;51.076;3.706;2024-03-23T07:27:29;100333.41;;;5.63;91.13
32735;BME280;19112;51.076;3.706;2024-03-23T07:29:54;100402.31;;;6.70;90.33
32735;BME280;19112;51.076;3.706;2024-03-23T07:32:21;100805.47;;;9.05;91.01
32735;BME280;19112;51.076;3.706;2024-03-23T07:34:47;100831.47;;;8.78;89.52
32735;BME280;19112;51.076;3.706;2024-03-23T07:37:13;100618.97;;;7.76;88.89
32735;BME280;19112;51.076;3.706;2024-03-23T07:39:42;101176.13;;;10.88;88.62
32735;BME280;19112;51.076;3.706;2024-03-23T07:42:08;101161.22;;;10.64;87.76
32735;BME280;19112;51.076;3.706;2024-03-23T07:44:36;100388.44;;;5.90;87.08
32735;BME280;19112;51.076;3.706;2024-03-23T07:50:30;100200.81;;;4.50;86.68
32735;BME280;19112;51.076;3.706;2024-03-23T07:52:56;100364.13;;;5.51;87.02
32735;BME280;19112;51.076;3.706;2024-03-23T07:55:22;101170.28;;;10.28;87.08
32735;BME280;19112;51.076;3.706;2024-03-23T07:57:51;100809.84;;;8.19;87.47
32735;BME280;19112;51.076;3.706;2024-03-23T08:00:17;101200.19;;;10.31;88.13
32735;BME280;19112;51.076;3.706;2024-03-23T08:02:44;100195.59;;;5.07;88.02
32735;BME280;19112;51.076;3.706;2024-03-23T08:05:10;100521.97;;;6.43;87.60
32735;BME280;19112;51.076;3.706;2024-03-23T08:07:43;100689.13;;;7.67;88.39
32735;BME280;19112;51.076;3.706;2024-03-23T08:10:09;100650.56;;;7.40;88.56
32735;BME280;19112;51.076;3.706;2024-03-23T08:12:36;99909.50;;;3.28;87.79
32735;BME280;19112;51.076;3.706;2024-03-23T08:15:02;100568.25;;;7.27;88.71
32735;BME280;19112;51.076;3.706;2024-03-23T08:17:28;100895.19;;;8.78;90.02
32735;BME280;19112;51.076;3.706;2024-03-23T08:19:57;100958.19;;;9.69;90.19
32735;BME280;19112;51.076;3.706;2024-03-23T08:22:25;100863.81;;;9.01;90.04
32735;BME280;19112;51.076;3.706;2024-03-23T08:24:52;100391.88;;;6.70;91.76
32735;BME280;19112;51.076;3.706;2024-03-23T08:27:18;100106.84;;;5.41;93.36
32735;BME280;19112;51.076;3.706;2024-03-23T08:29:45;101192.53;;;11.30;93.86
32735;BME280;19112;51.076;3.706;2024-03-23T08:32:11;100815.72;;;9.69;93.17
32735;BME280;19112;51.076;3.706;2024-03-23T08:34:40;100693.09;;;8.87;90.85
32735;BME280;19112;51.076;3.706;2024-03-23T08:37:07;100927.56;;;10.16;89.41
32735;BME280;19112;51.076;3.706;2024-03-23T08:39:32;100919.03;;;9.74;87.12
32735;BME280;19112;51.076;3.706;2024-03-23T08:42:01;100592.72;;;7.94;85.82
32735;BME280;19112;51.076;3.706;2024-03-23T08:44:28;100902.97;;;8.98;85.74
32735;BME280;19112;51.076;3.706;2024-03-23T08:46:56;100851.13;;;9.34;86.87
32735;BME280;19112;51.076;3.706;2024-03-23T08:49:22;100145.03;;;5.21;87.07
32735;BME280;19112;51.076;3.706;2024-03-23T08:51:48;100144.34;;;5.25;89.34
32735;BME280;19112;51.076;3.706;2024-03-23T08:54:14;100906.84;;;9.98;91.05
32735;BME280;19112;51.076;3.706;2024-03-23T08:56:39;100592.34;;;8.29;91.52
32735;BME280;19112;51.076;3.706;2024-03-23T08:59:05;100245.41;;;5.95;90.08
32735;BME280;19112;51.076;3.706;2024-03-23T09:01:32;100717.84;;;8.50;90.07
32735;BME280;19112;51.076;3.706;2024-03-23T09:04:00;100574.06;;;7.84;89.46
32735;BME280;19112;51.076;3.706;2024-03-23T09:06:26;100293.09;;;6.13;89.20
32735;BME280;19112;51.076;3.706;2024-03-23T09:08:52;100264.59;;;6.18;90.02
32735;BME280;19112;51.076;3.706;2024-03-23T09:11:19;100699.88;;;8.58;91.33
32735;BME280;19112;51.076;3.706;2024-03-23T09:13:46;100375.03;;;7.05;90.49
32735;BME280;19112;51.076;3.706;2024-03-23T09:16:15;100573.75;;;8.68;91.90
32735;BME280;19112;51.076;3.706;2024-03-23T09:18:44;100364.75;;;7.54;91.61
32735;BME280;19112;51.076;3.706;2024-03-23T09:21:14;100405.47;;;7.49;92.12
32735;BME280;19112;51.076;3.706;2024-03-23T09:23:45;101136.47;;;12.36;92.17
32735;BME280;19112;51.076;3.706;2024-03-23T09:26:12;101009.84;;;11.43;89.30
32735;BME280;19112;51.076;3.706;2024-03-23T09:28:38;100416.41;;;7.39;87.14
32735;BME280;19112;51.076;3.706;2024-03-23T09:31:08;100991.19;;;11.08;86.22
32735;BME280;19112;51.076;3.706;2024-03-23T09:33:37;99912.13;;;4.65;84.62
32735;BME280;19112;51.076;3.706;2024-03-23T09:36:07;99993.69;;;4.68;84.20
32735;BME280;19112;51.076;3.706;2024-03-23T09:38:33;100849.09;;;9.97;86.29
32735;BME280;19112;51.076;3.706;2024-03-23T09:41:00;100354.88;;;6.57;87.05
32735;BME280;19112;51.076;3.706;2024-03-23T09:43:27;100925.59;;;10.33;86.51
32735;BME280;19112;51.076;3.706;2024-03-23T09:45:55;100732.06;;;9.02;86.33
32735;BME280;19112;51.076;3.706;2024-03-23T09:48:21;100673.50;;;8.76;87.63
32735;BME280;19112;51.076;3.706;2024-03-23T09:50:48;100893.22;;;10.09;85.52
32735;BME280;19112;51.076;3.706;2024-03-23T09:53:15;100905.09;;;10.23;87.44
32735;BME280;19112;51.076;3.706;2024-03-23T09:55:44;101050.13;;;10.91;85.11
32735;BME280;19112;51.076;3.706;2024-03-23T09:58:16;100716.84;;;9.15;87.12
32735;BME280;19112;51.076;3.706;2024-03-23T10:00:43;100751.22;;;9.25;85.99
32735;BME280;19112;51.076;3.706;2024-03-23T10:03:12;100459.06;;;7.84;85.21
32735;BME280;19112;51.076;3.706;2024-03-23T10:05:39;99779.19;;;3.72;85.01
32735;BME280;19112;51.076;3.706;2024-03-23T10:08:18;100629.34;;;8.38;85.05
32735;BME280;19112;51.076;3.706;2024-03-23T10:10:46;100240.75;;;6.29;84.10
32735;BME280;19112;51.076;3.706;2024-03-23T10:13:28;100802.59;;;9.21;85.56
32735;BME280;19112;51.076;3.706;2024-03-23T10:15:58;101151.00;;;11.20;84.14
32735;BME280;19112;51.076;3.706;2024-03-23T10:18:27;100448.97;;;7.26;87.03
32735;BME280;19112;51.076;3.706;2024-03-23T10:21:08;100179.22;;;6.12;88.56
32735;BME280;19112;51.076;3.706;2024-03-23T10:23:40;100059.16;;;6.06;90.23
32735;BME280;19112;51.076;3.706;2024-03-23T10:26:23;100770.78;;;10.08;89.55
32735;BME280;19112;51.076;3.706;2024-03-23T10:29:01;100915.19;;;11.14;86.21
32735;BME280;19112;51.076;3.706;2024-03-23T10:31:32;100283.25;;;7.63;87.30
32735;BME280;19112;51.076;3.706;2024-03-23T10:33:59;100768.56;;;10.45;87.52
32735;BME280;19112;51.076;3.706;2024-03-23T10:36:26;101079.53;;;12.71;90.61
32735;BME280;19112;51.076;3.706;2024-03-23T10:38:55;100560.66;;;9.70;87.31
32735;BME280;19112;51.076;3.706;2024-03-23T10:41:23;101076.13;;;12.74;84.90
32735;BME280;19112;51.076;3.706;2024-03-23T10:43:55;101146.66;;;12.84;84.58
32735;BME280;19112;51.076;3.706;2024-03-23T10:46:23;100089.44;;;7.22;84.67
32735;BME280;19112;51.076;3.706;2024-03-23T10:48:50;100729.38;;;10.80;85.55
32735;BME280;19112;51.076;3.706;2024-03-23T10:51:16;100428.22;;;8.99;88.64
32735;BME280;19112;51.076;3.706;2024-03-23T10:53:45;99699.69;;;5.57;82.88
32735;BME280;19112;51.076;3.706;2024-03-23T10:56:12;100965.78;;;12.86;83.54
32735;BME280;19112;51.076;3.706;2024-03-23T10:58:44;100820.91;;;11.55;82.00
32735;BME280;19112;51.076;3.706;2024-03-23T11:01:12;100368.53;;;9.15;81.34
32735;BME280;19112;51.076;3.706;2024-03-23T11:04:38;100566.63;;;9.93;80.34
32735;BME280;19112;51.076;3.706;2024-03-23T11:09:53;100328.16;;;9.37;84.61
32735;BME280;19112;51.076;3.706;2024-03-23T11:15:04;100781.84;;;12.70;79.09
32735;BME280;19112;51.076;3.706;2024-03-23T11:17:31;100259.00;;;9.62;79.75
32735;BME280;19112;51.076;3.706;2024-03-23T11:22:45;101131.47;;;14.47;79.27
32735;BME280;19112;51.076;3.706;2024-03-23T11:25:21;100550.97;;;11.89;75.10
32735;BME280;19112;51.076;3.706;2024-03-23T11:27:49;101096.22;;;14.87;80.35
32735;BME280;19112;51.076;3.706;2024-03-23T11:30:16;101033.75;;;14.94;75.05
32735;BME280;19112;51.076;3.706;2024-03-23T11:32:47;100419.72;;;11.62;75.80
32735;BME280;19112;51.076;3.706;2024-03-23T11:35:29;101039.91;;;14.91;73.83
32735;BME280;19112;51.076;3.706;2024-03-23T11:38:10;101041.31;;;14.32;73.10
32735;BME280;19112;51.076;3.706;2024-03-23T11:40:45;100674.28;;;12.11;73.19
32735;BME280;19112;51.076;3.706;2024-03-23T11:43:18;101047.78;;;13.31;71.00
32735;BME280;19112;51.076;3.706;2024-03-23T11:45:50;100313.78;;;9.53;72.59
32735;BME280;19112;51.076;3.706;2024-03-23T11:48:22;100613.97;;;11.16;66.04
32735;BME280;19112;51.076;3.706;2024-03-23T11:50:50;100084.06;;;8.54;67.31
32735;BME280;19112;51.076;3.706;2024-03-23T11:53:25;100873.41;;;13.16;69.60
32735;BME280;19112;51.076;3.706;2024-03-23T11:55:59;100682.88;;;12.04;67.59
32735;BME280;19112;51.076;3.706;2024-03-23T11:58:27;100789.97;;;13.20;67.45
32735;BME280;19112;51.076;3.706;2024-03-23T12:00:58;100546.41;;;11.12;65.87
32735;BME280;19112;51.076;3.706;2024-03-23T12:03:26;100079.25;;;8.39;64.11
32735;BME280;19112;51.076;3.706;2024-03-23T12:05:57;100053.56;;;7.98;66.78
32735;BME280;19112;51.076;3.706;2024-03-23T12:08:33;100537.31;;;10.35;64.62
32735;BME280;19112;51.076;3.706;2024-03-23T12:11:14;100224.38;;;8.81;63.14
32735;BME280;19112;51.076;3.706;2024-03-23T12:13:43;100538.88;;;10.28;65.44
32735;BME280;19112;51.076;3.706;2024-03-23T12:16:20;100858.66;;;12.88;65.57
32735;BME280;19112;51.076;3.706;2024-03-23T12:18:49;100803.81;;;12.72;62.22
32735;BME280;19112;51.076;3.706;2024-03-23T12:21:17;100385.59;;;10.53;59.45
32735;BME280;19112;51.076;3.706;2024-03-23T12:23:44;100469.56;;;10.86;56.72
32735;BME280;19112;51.076;3.706;2024-03-23T12:26:14;100406.34;;;11.13;58.21
32735;BME280;19112;51.076;3.706;2024-03-23T12:28:41;100345.06;;;10.42;58.51
32735;BME280;19112;51.076;3.706;2024-03-23T12:31:07;100893.81;;;14.06;53.96
32735;BME280;19112;51.076;3.706;2024-03-23T12:33:33;100364.84;;;10.62;57.17
32735;BME280;19112;51.076;3.706;2024-03-23T12:35:59;100715.56;;;12.51;60.01
32735;BME280;19112;51.076;3.706;2024-03-23T12:38:25;100514.94;;;11.14;56.65
32735;BME280;19112;51.076;3.706;2024-03-23T12:40:52;100662.53;;;11.98;59.52
32735;BME280;19112;51.076;3.706;2024-03-23T12:43:19;100307.13;;;9.64;60.40
32735;BME280;19112;51.076;3.706;2024-03-23T12:45:48;100507.28;;;10.88;59.16
32735;BME280;19112;51.076;3.706;2024-03-23T12:48:15;100106.13;;;8.35;62.54
32735;BME280;19112;51.076;3.706;2024-03-23T12:50:41;99834.72;;;7.00;63.25
32735;BME280;19112;51.076;3.706;2024-03-23T12:53:08;100361.56;;;10.38;59.76
32735;BME280;19112;51.076;3.706;2024-03-23T12:55:37;100731.06;;;12.39;60.18
32735;BME280;19112;51.076;3.706;2024-03-23T12:58:03;100249.22;;;9.24;59.74
32735;BME280;19112;51.076;3.706;2024-03-23T13:00:31;100537.13;;;10.92;60.55
32735;BME280;19112;51.076;3.706;2024-03-23T13:02:57;100857.66;;;13.21;60.76
32735;BME280;19112;51.076;3.706;2024-03-23T13:05:23;100733.47;;;12.30;60.15
32735;BME280;19112;51.076;3.706;2024-03-23T13:07:49;100542.72;;;11.39;61.74
32735;BME280;19112;51.076;3.706;2024-03-23T13:10:15;100578.88;;;11.49;61.02
32735;BME280;19112;51.076;3.706;2024-03-23T13:12:42;100497.22;;;11.05;61.50
32735;BME280;19112;51.076;3.706;2024-03-23T13:15:08;100992.50;;;13.34;61.71
32735;BME280;19112;51.076;3.706;2024-03-23T13:17:38;100757.03;;;12.24;62.13
32735;BME280;19112;51.076;3.706;2024-03-23T13:20:04;100767.00;;;12.02;63.16
32735;BME280;19112;51.076;3.706;2024-03-23T13:22:31;100403.63;;;10.39;60.12
32735;BME280;19112;51.076;3.706;2024-03-23T13:24:57;100842.81;;;13.23;60.34
32735;BME280;19112;51.076;3.706;2024-03-23T13:27:23;100374.34;;;10.93;59.90
32735;BME280;19112;51.076;3.706;2024-03-23T13:29:48;100156.22;;;9.74;59.31
32735;BME280;19112;51.076;3.706;2024-03-23T13:32:17;100080.38;;;9.44;57.85
32735;BME280;19112;51.076;3.706;2024-03-23T13:34:45;100226.41;;;10.19;57.97
32735;BME280;19112;51.076;3.706;2024-03-23T13:37:10;100633.09;;;12.52;54.09
32735;BME280;19112;51.076;3.706;2024-03-23T13:39:37;100404.94;;;10.91;54.30
32735;BME280;19112;51.076;3.706;2024-03-23T13:42:03;100564.34;;;11.63;54.94
32735;BME280;19112;51.076;3.706;2024-03-23T13:44:30;100075.94;;;9.07;53.15
32735;BME280;19112;51.076;3.706;2024-03-23T13:46:55;99970.97;;;8.03;53.22
32735;BME280;19112;51.076;3.706;2024-03-23T13:49:29;100093.41;;;8.46;52.73
32735;BME280;19112;51.076;3.706;2024-03-23T13:51:57;100335.13;;;9.97;53.27
32735;BME280;19112;51.076;3.706;2024-03-23T13:54:30;100297.19;;;10.17;53.35
32735;BME280;19112;51.076;3.706;2024-03-23T13:56:57;100833.63;;;13.45;53.29
32735;BME280;19112;51.076;3.706;2024-03-23T13:59:23;100745.22;;;12.80;51.55
32735;BME280;19112;51.076;3.706;2024-03-23T14:01:50;100945.69;;;14.48;52.05
32735;BME280;19112;51.076;3.706;2024-03-23T14:04:18;100739.00;;;13.61;54.61
32735;BME280;19112;51.076;3.706;2024-03-23T14:06:46;100475.16;;;12.55;56.49